sensor_id;sensor_type;location;lat;lon;timestamp;P1;durP1;ratioP1;P2;durP2;ratioP2
16254;SDS011;8235;52.198;9.904;2023-05-10T00:02:15;4.87;;;3.30;;
16254;SDS011;8235;52.198;9.904;2023-05-10T00:04:41;3.50;;;2.50;;
16254;SDS011;8235;52.198;9.904;2023-05-10T00:07:08;4.17;;;2.43;;
16254;SDS011;8235;52.198;9.904;2023-05-10T00:09:35;3.37;;;2.50;;
16254;SDS011;8235;52.198;9.904;2023-05-10T00:12:01;4.17;;;1.93;;
16254;SDS011;8235;52.198;9.904;2023-05-10T00:14:28;5.70;;;2.47;;
16254;SDS011;8235;52.198;9.904;2023-05-10T00:16:56;2.93;;;2.30;;
16254;SDS011;8235;52.198;9.904;2023-05-10T00:19:22;4.73;;;2.20;;
16254;SDS011;8235;52.198;9.904;2023-05-10T00:21:49;2.73;;;2.23;;
16254;SDS011;8235;52.198;9.904;2023-05-10T00:24:15;8.90;;;3.03;;
16254;SDS011;8235;52.198;9.904;2023-05-10T00:26:41;3.57;;;2.63;;
16254;SDS011;8235;52.198;9.904;2023-05-10T00:29:08;4.97;;;2.67;;
16254;SDS011;8235;52.198;9.904;2023-05-10T00:31:34;6.10;;;2.73;;
16254;SDS011;8235;52.198;9.904;2023-05-10T00:34:02;2.67;;;2.23;;
16254;SDS011;8235;52.198;9.904;2023-05-10T00:36:29;4.83;;;2.77;;
16254;SDS011;8235;52.198;9.904;2023-05-10T00:38:56;3.50;;;2.50;;
16254;SDS011;8235;52.198;9.904;2023-05-10T00:41:22;3.83;;;2.67;;
16254;SDS011;8235;52.198;9.904;2023-05-10T00:43:49;3.07;;;2.40;;
16254;SDS011;8235;52.198;9.904;2023-05-10T00:46:15;3.60;;;2.80;;
16254;SDS011;8235;52.198;9.904;2023-05-10T00:48:42;3.03;;;2.60;;
16254;SDS011;8235;52.198;9.904;2023-05-10T00:51:10;4.20;;;3.33;;
16254;SDS011;8235;52.198;9.904;2023-05-10T00:53:37;4.30;;;2.77;;
16254;SDS011;8235;52.198;9.904;2023-05-10T00:56:04;2.67;;;2.23;;
16254;SDS011;8235;52.198;9.904;2023-05-10T00:58:31;4.27;;;2.57;;
16254;SDS011;8235;52.198;9.904;2023-05-10T01:00:58;4.40;;;2.63;;
16254;SDS011;8235;52.198;9.904;2023-05-10T01:03:25;4.10;;;3.00;;
16254;SDS011;8235;52.198;9.904;2023-05-10T01:05:52;3.63;;;2.90;;
16254;SDS011;8235;52.198;9.904;2023-05-10T01:08:19;3.20;;;2.80;;
16254;SDS011;8235;52.198;9.904;2023-05-10T01:10:46;6.33;;;3.37;;
16254;SDS011;8235;52.198;9.904;2023-05-10T01:13:14;3.40;;;2.87;;
16254;SDS011;8235;52.198;9.904;2023-05-10T01:15:50;3.77;;;2.80;;
16254;SDS011;8235;52.198;9.904;2023-05-10T01:18:17;5.77;;;2.83;;
16254;SDS011;8235;52.198;9.904;2023-05-10T01:20:46;3.77;;;2.90;;
16254;SDS011;8235;52.198;9.904;2023-05-10T01:23:39;4.03;;;3.30;;
16254;SDS011;8235;52.198;9.904;2023-05-10T01:26:39;4.40;;;3.07;;
16254;SDS011;8235;52.198;9.904;2023-05-10T01:29:35;4.77;;;2.80;;
16254;SDS011;8235;52.198;9.904;2023-05-10T01:32:21;3.67;;;2.97;;
16254;SDS011;8235;52.198;9.904;2023-05-10T01:34:54;4.53;;;3.20;;
16254;SDS011;8235;52.198;9.904;2023-05-10T01:37:29;4.57;;;3.00;;
16254;SDS011;8235;52.198;9.904;2023-05-10T01:40:05;5.07;;;2.93;;
16254;SDS011;8235;52.198;9.904;2023-05-10T01:42:39;4.37;;;3.40;;
16254;SDS011;8235;52.198;9.904;2023-05-10T01:45:14;3.87;;;2.97;;
16254;SDS011;8235;52.198;9.904;2023-05-10T01:47:48;4.33;;;3.23;;
16254;SDS011;8235;52.198;9.904;2023-05-10T01:50:18;5.33;;;2.80;;
16254;SDS011;8235;52.198;9.904;2023-05-10T01:52:49;8.17;;;2.97;;
16254;SDS011;8235;52.198;9.904;2023-05-10T01:55:21;3.93;;;2.90;;
16254;SDS011;8235;52.198;9.904;2023-05-10T01:57:52;5.57;;;4.07;;
16254;SDS011;8235;52.198;9.904;2023-05-10T02:00:33;4.37;;;3.43;;
16254;SDS011;8235;52.198;9.904;2023-05-10T02:03:04;4.10;;;3.30;;
16254;SDS011;8235;52.198;9.904;2023-05-10T02:05:32;9.13;;;4.23;;
16254;SDS011;8235;52.198;9.904;2023-05-10T02:08:01;4.77;;;3.53;;
16254;SDS011;8235;52.198;9.904;2023-05-10T02:10:31;3.80;;;3.40;;
16254;SDS011;8235;52.198;9.904;2023-05-10T02:12:58;4.60;;;3.60;;
16254;SDS011;8235;52.198;9.904;2023-05-10T02:15:26;5.23;;;3.90;;
16254;SDS011;8235;52.198;9.904;2023-05-10T02:17:55;4.20;;;3.50;;
16254;SDS011;8235;52.198;9.904;2023-05-10T02:20:25;4.97;;;3.93;;
16254;SDS011;8235;52.198;9.904;2023-05-10T02:22:52;4.23;;;3.40;;
16254;SDS011;8235;52.198;9.904;2023-05-10T02:25:22;4.50;;;3.47;;
16254;SDS011;8235;52.198;9.904;2023-05-10T02:27:50;6.80;;;3.23;;
16254;SDS011;8235;52.198;9.904;2023-05-10T02:30:18;4.67;;;4.03;;
16254;SDS011;8235;52.198;9.904;2023-05-10T02:32:46;4.47;;;3.30;;
16254;SDS011;8235;52.198;9.904;2023-05-10T02:35:15;4.33;;;3.20;;
16254;SDS011;8235;52.198;9.904;2023-05-10T02:37:44;5.27;;;3.30;;
16254;SDS011;8235;52.198;9.904;2023-05-10T02:40:12;4.03;;;3.60;;
16254;SDS011;8235;52.198;9.904;2023-05-10T02:42:41;4.43;;;3.20;;
16254;SDS011;8235;52.198;9.904;2023-05-10T02:45:11;3.57;;;3.27;;
16254;SDS011;8235;52.198;9.904;2023-05-10T02:47:40;3.90;;;3.23;;
16254;SDS011;8235;52.198;9.904;2023-05-10T02:50:07;4.47;;;3.73;;
16254;SDS011;8235;52.198;9.904;2023-05-10T02:52:37;5.17;;;3.33;;
16254;SDS011;8235;52.198;9.904;2023-05-10T02:55:08;6.73;;;3.67;;
16254;SDS011;8235;52.198;9.904;2023-05-10T02:57:38;4.27;;;3.70;;
16254;SDS011;8235;52.198;9.904;2023-05-10T03:00:09;4.77;;;3.57;;
16254;SDS011;8235;52.198;9.904;2023-05-10T03:02:36;4.90;;;3.83;;
16254;SDS011;8235;52.198;9.904;2023-05-10T03:05:03;5.97;;;3.67;;
16254;SDS011;8235;52.198;9.904;2023-05-10T03:07:30;4.73;;;4.00;;
16254;SDS011;8235;52.198;9.904;2023-05-10T03:09:56;6.10;;;4.00;;
16254;SDS011;8235;52.198;9.904;2023-05-10T03:12:27;4.83;;;3.60;;
16254;SDS011;8235;52.198;9.904;2023-05-10T03:15:06;6.00;;;3.57;;
16254;SDS011;8235;52.198;9.904;2023-05-10T03:17:41;5.43;;;4.17;;
16254;SDS011;8235;52.198;9.904;2023-05-10T03:20:16;4.70;;;4.23;;
16254;SDS011;8235;52.198;9.904;2023-05-10T03:22:47;5.17;;;4.27;;
16254;SDS011;8235;52.198;9.904;2023-05-10T03:25:17;4.50;;;4.10;;
16254;SDS011;8235;52.198;9.904;2023-05-10T03:27:48;4.90;;;3.97;;
16254;SDS011;8235;52.198;9.904;2023-05-10T03:30:15;4.37;;;3.97;;
16254;SDS011;8235;52.198;9.904;2023-05-10T03:32:42;8.37;;;4.30;;
16254;SDS011;8235;52.198;9.904;2023-05-10T03:35:09;6.27;;;4.10;;
16254;SDS011;8235;52.198;9.904;2023-05-10T03:37:36;6.63;;;4.97;;
16254;SDS011;8235;52.198;9.904;2023-05-10T03:40:03;5.00;;;4.50;;
16254;SDS011;8235;52.198;9.904;2023-05-10T03:42:31;5.17;;;4.63;;
16254;SDS011;8235;52.198;9.904;2023-05-10T03:44:58;5.63;;;5.00;;
16254;SDS011;8235;52.198;9.904;2023-05-10T03:47:25;5.77;;;4.90;;
16254;SDS011;8235;52.198;9.904;2023-05-10T03:49:51;6.40;;;5.37;;
16254;SDS011;8235;52.198;9.904;2023-05-10T03:52:18;6.00;;;5.33;;
16254;SDS011;8235;52.198;9.904;2023-05-10T03:54:44;5.63;;;4.83;;
16254;SDS011;8235;52.198;9.904;2023-05-10T03:57:11;5.77;;;5.17;;
16254;SDS011;8235;52.198;9.904;2023-05-10T03:59:37;7.33;;;5.30;;
16254;SDS011;8235;52.198;9.904;2023-05-10T04:02:05;6.07;;;5.23;;
16254;SDS011;8235;52.198;9.904;2023-05-10T04:04:31;6.20;;;5.40;;
16254;SDS011;8235;52.198;9.904;2023-05-10T04:06:58;6.40;;;5.53;;
16254;SDS011;8235;52.198;9.904;2023-05-10T04:09:24;6.93;;;5.90;;
16254;SDS011;8235;52.198;9.904;2023-05-10T04:11:51;5.83;;;5.33;;
16254;SDS011;8235;52.198;9.904;2023-05-10T04:14:17;6.77;;;6.00;;
16254;SDS011;8235;52.198;9.904;2023-05-10T04:16:44;7.23;;;6.23;;
16254;SDS011;8235;52.198;9.904;2023-05-10T04:19:11;9.07;;;5.70;;
16254;SDS011;8235;52.198;9.904;2023-05-10T04:21:38;6.07;;;5.47;;
16254;SDS011;8235;52.198;9.904;2023-05-10T04:24:05;9.03;;;6.27;;
16254;SDS011;8235;52.198;9.904;2023-05-10T04:26:31;7.27;;;5.47;;
16254;SDS011;8235;52.198;9.904;2023-05-10T04:28:58;6.20;;;5.60;;
16254;SDS011;8235;52.198;9.904;2023-05-10T04:31:24;6.30;;;4.80;;
16254;SDS011;8235;52.198;9.904;2023-05-10T04:33:51;6.50;;;5.80;;
16254;SDS011;8235;52.198;9.904;2023-05-10T04:36:19;6.50;;;5.77;;
16254;SDS011;8235;52.198;9.904;2023-05-10T04:38:46;7.20;;;6.03;;
16254;SDS011;8235;52.198;9.904;2023-05-10T04:41:12;8.03;;;6.60;;
16254;SDS011;8235;52.198;9.904;2023-05-10T04:43:38;9.67;;;6.67;;
16254;SDS011;8235;52.198;9.904;2023-05-10T04:46:05;7.80;;;6.77;;
16254;SDS011;8235;52.198;9.904;2023-05-10T04:48:32;6.77;;;6.07;;
16254;SDS011;8235;52.198;9.904;2023-05-10T04:50:58;6.90;;;6.20;;
16254;SDS011;8235;52.198;9.904;2023-05-10T04:53:26;9.17;;;7.07;;
16254;SDS011;8235;52.198;9.904;2023-05-10T04:55:53;9.40;;;7.13;;
16254;SDS011;8235;52.198;9.904;2023-05-10T04:58:19;7.70;;;6.90;;
16254;SDS011;8235;52.198;9.904;2023-05-10T05:00:46;7.90;;;7.20;;
16254;SDS011;8235;52.198;9.904;2023-05-10T05:03:12;8.27;;;7.13;;
16254;SDS011;8235;52.198;9.904;2023-05-10T05:05:39;7.70;;;6.77;;
16254;SDS011;8235;52.198;9.904;2023-05-10T05:08:05;8.00;;;7.20;;
16254;SDS011;8235;52.198;9.904;2023-05-10T05:10:33;8.03;;;7.23;;
16254;SDS011;8235;52.198;9.904;2023-05-10T05:12:59;7.97;;;7.17;;
16254;SDS011;8235;52.198;9.904;2023-05-10T05:15:26;7.43;;;6.77;;
16254;SDS011;8235;52.198;9.904;2023-05-10T05:17:52;8.03;;;6.87;;
16254;SDS011;8235;52.198;9.904;2023-05-10T05:20:19;6.70;;;6.10;;
16254;SDS011;8235;52.198;9.904;2023-05-10T05:22:46;6.10;;;5.20;;
16254;SDS011;8235;52.198;9.904;2023-05-10T05:25:12;5.20;;;4.70;;
16254;SDS011;8235;52.198;9.904;2023-05-10T05:27:41;5.30;;;4.80;;
16254;SDS011;8235;52.198;9.904;2023-05-10T05:30:08;5.67;;;4.50;;
16254;SDS011;8235;52.198;9.904;2023-05-10T05:32:35;7.63;;;5.23;;
16254;SDS011;8235;52.198;9.904;2023-05-10T05:35:02;6.03;;;5.33;;
16254;SDS011;8235;52.198;9.904;2023-05-10T05:37:28;7.17;;;5.73;;
16254;SDS011;8235;52.198;9.904;2023-05-10T05:39:55;6.50;;;5.37;;
16254;SDS011;8235;52.198;9.904;2023-05-10T05:42:21;6.30;;;5.63;;
16254;SDS011;8235;52.198;9.904;2023-05-10T05:44:49;6.27;;;5.60;;
16254;SDS011;8235;52.198;9.904;2023-05-10T05:47:16;6.37;;;5.87;;
16254;SDS011;8235;52.198;9.904;2023-05-10T05:49:42;6.07;;;5.47;;
16254;SDS011;8235;52.198;9.904;2023-05-10T05:52:10;6.17;;;5.57;;
16254;SDS011;8235;52.198;9.904;2023-05-10T05:54:37;6.17;;;5.50;;
16254;SDS011;8235;52.198;9.904;2023-05-10T05:57:03;5.87;;;5.37;;
16254;SDS011;8235;52.198;9.904;2023-05-10T05:59:30;6.40;;;5.80;;
16254;SDS011;8235;52.198;9.904;2023-05-10T06:01:58;6.00;;;5.33;;
16254;SDS011;8235;52.198;9.904;2023-05-10T06:04:25;6.10;;;5.50;;
16254;SDS011;8235;52.198;9.904;2023-05-10T06:06:52;6.53;;;5.83;;
16254;SDS011;8235;52.198;9.904;2023-05-10T06:09:18;6.77;;;5.87;;
16254;SDS011;8235;52.198;9.904;2023-05-10T06:11:45;7.47;;;6.13;;
16254;SDS011;8235;52.198;9.904;2023-05-10T06:14:11;6.63;;;5.77;;
16254;SDS011;8235;52.198;9.904;2023-05-10T06:16:38;6.20;;;5.60;;
16254;SDS011;8235;52.198;9.904;2023-05-10T06:19:06;5.87;;;5.33;;
16254;SDS011;8235;52.198;9.904;2023-05-10T06:21:33;6.57;;;5.93;;
16254;SDS011;8235;52.198;9.904;2023-05-10T06:23:59;7.27;;;6.53;;
16254;SDS011;8235;52.198;9.904;2023-05-10T06:26:26;6.77;;;6.17;;
16254;SDS011;8235;52.198;9.904;2023-05-10T06:28:52;6.87;;;6.17;;
16254;SDS011;8235;52.198;9.904;2023-05-10T06:31:19;6.73;;;6.07;;
16254;SDS011;8235;52.198;9.904;2023-05-10T06:33:45;6.17;;;5.57;;
16254;SDS011;8235;52.198;9.904;2023-05-10T06:36:13;6.50;;;5.90;;
16254;SDS011;8235;52.198;9.904;2023-05-10T06:38:40;6.53;;;5.97;;
16254;SDS011;8235;52.198;9.904;2023-05-10T06:41:06;6.03;;;5.53;;
16254;SDS011;8235;52.198;9.904;2023-05-10T06:43:33;6.77;;;6.00;;
16254;SDS011;8235;52.198;9.904;2023-05-10T06:45:59;6.53;;;5.93;;
16254;SDS011;8235;52.198;9.904;2023-05-10T06:48:26;6.47;;;5.80;;
16254;SDS011;8235;52.198;9.904;2023-05-10T06:50:53;7.03;;;5.97;;
16254;SDS011;8235;52.198;9.904;2023-05-10T06:53:20;7.40;;;6.23;;
16254;SDS011;8235;52.198;9.904;2023-05-10T06:55:48;7.43;;;6.13;;
16254;SDS011;8235;52.198;9.904;2023-05-10T06:58:15;8.17;;;6.60;;
16254;SDS011;8235;52.198;9.904;2023-05-10T07:00:41;7.07;;;6.47;;
16254;SDS011;8235;52.198;9.904;2023-05-10T07:03:08;7.70;;;6.63;;
16254;SDS011;8235;52.198;9.904;2023-05-10T07:05:35;7.90;;;7.20;;
16254;SDS011;8235;52.198;9.904;2023-05-10T07:08:01;7.73;;;6.90;;
16254;SDS011;8235;52.198;9.904;2023-05-10T07:10:30;7.90;;;6.13;;
16254;SDS011;8235;52.198;9.904;2023-05-10T07:12:56;7.93;;;6.00;;
16254;SDS011;8235;52.198;9.904;2023-05-10T07:15:23;6.60;;;5.97;;
16254;SDS011;8235;52.198;9.904;2023-05-10T07:17:49;7.47;;;6.30;;
16254;SDS011;8235;52.198;9.904;2023-05-10T07:20:16;7.03;;;5.80;;
16254;SDS011;8235;52.198;9.904;2023-05-10T07:22:43;6.20;;;5.60;;
16254;SDS011;8235;52.198;9.904;2023-05-10T07:25:10;6.37;;;5.57;;
16254;SDS011;8235;52.198;9.904;2023-05-10T07:27:37;6.07;;;5.47;;
16254;SDS011;8235;52.198;9.904;2023-05-10T07:30:04;7.27;;;5.60;;
16254;SDS011;8235;52.198;9.904;2023-05-10T07:32:32;6.50;;;5.73;;
16254;SDS011;8235;52.198;9.904;2023-05-10T07:34:58;7.83;;;5.73;;
16254;SDS011;8235;52.198;9.904;2023-05-10T07:37:25;5.70;;;4.97;;
16254;SDS011;8235;52.198;9.904;2023-05-10T07:39:51;5.53;;;5.03;;
16254;SDS011;8235;52.198;9.904;2023-05-10T07:42:18;5.40;;;4.77;;
16254;SDS011;8235;52.198;9.904;2023-05-10T07:44:45;5.20;;;4.40;;
16254;SDS011;8235;52.198;9.904;2023-05-10T07:47:12;6.23;;;4.50;;
16254;SDS011;8235;52.198;9.904;2023-05-10T07:49:38;4.10;;;3.73;;
16254;SDS011;8235;52.198;9.904;2023-05-10T07:52:05;6.13;;;4.83;;
16254;SDS011;8235;52.198;9.904;2023-05-10T07:54:31;3.73;;;3.43;;
16254;SDS011;8235;52.198;9.904;2023-05-10T07:56:59;4.07;;;3.77;;
16254;SDS011;8235;52.198;9.904;2023-05-10T07:59:26;3.73;;;3.43;;
16254;SDS011;8235;52.198;9.904;2023-05-10T08:01:53;3.90;;;3.60;;
16254;SDS011;8235;52.198;9.904;2023-05-10T08:04:21;3.30;;;3.00;;
16254;SDS011;8235;52.198;9.904;2023-05-10T08:06:47;3.70;;;3.20;;
16254;SDS011;8235;52.198;9.904;2023-05-10T08:09:14;3.00;;;2.77;;
16254;SDS011;8235;52.198;9.904;2023-05-10T08:11:40;3.23;;;2.67;;
16254;SDS011;8235;52.198;9.904;2023-05-10T08:14:07;2.97;;;2.53;;
16254;SDS011;8235;52.198;9.904;2023-05-10T08:16:33;4.50;;;2.83;;
16254;SDS011;8235;52.198;9.904;2023-05-10T08:19:01;3.43;;;2.63;;
16254;SDS011;8235;52.198;9.904;2023-05-10T08:21:28;3.27;;;2.97;;
16254;SDS011;8235;52.198;9.904;2023-05-10T08:23:56;3.53;;;3.23;;
16254;SDS011;8235;52.198;9.904;2023-05-10T08:26:22;3.43;;;3.13;;
16254;SDS011;8235;52.198;9.904;2023-05-10T08:28:49;3.53;;;3.20;;
16254;SDS011;8235;52.198;9.904;2023-05-10T08:31:15;3.40;;;3.10;;
16254;SDS011;8235;52.198;9.904;2023-05-10T08:33:43;3.33;;;2.60;;
16254;SDS011;8235;52.198;9.904;2023-05-10T08:36:10;3.20;;;2.73;;
16254;SDS011;8235;52.198;9.904;2023-05-10T08:38:39;2.50;;;2.30;;
16254;SDS011;8235;52.198;9.904;2023-05-10T08:41:05;3.33;;;2.27;;
16254;SDS011;8235;52.198;9.904;2023-05-10T08:43:32;2.90;;;2.27;;
16254;SDS011;8235;52.198;9.904;2023-05-10T08:46:02;2.40;;;2.20;;
16254;SDS011;8235;52.198;9.904;2023-05-10T08:48:31;2.00;;;1.80;;
16254;SDS011;8235;52.198;9.904;2023-05-10T08:51:00;2.13;;;1.60;;
16254;SDS011;8235;52.198;9.904;2023-05-10T08:53:30;1.30;;;1.20;;
16254;SDS011;8235;52.198;9.904;2023-05-10T08:56:00;1.17;;;1.07;;
16254;SDS011;8235;52.198;9.904;2023-05-10T08:58:27;1.07;;;1.00;;
16254;SDS011;8235;52.198;9.904;2023-05-10T09:00:54;1.17;;;1.00;;
16254;SDS011;8235;52.198;9.904;2023-05-10T09:03:22;0.97;;;0.97;;
16254;SDS011;8235;52.198;9.904;2023-05-10T09:05:48;0.80;;;0.80;;
16254;SDS011;8235;52.198;9.904;2023-05-10T09:08:15;0.60;;;0.60;;
16254;SDS011;8235;52.198;9.904;2023-05-10T09:10:44;1.17;;;0.90;;
16254;SDS011;8235;52.198;9.904;2023-05-10T09:13:12;0.80;;;0.80;;
16254;SDS011;8235;52.198;9.904;2023-05-10T09:15:40;1.07;;;0.73;;
16254;SDS011;8235;52.198;9.904;2023-05-10T09:18:06;0.80;;;0.80;;
16254;SDS011;8235;52.198;9.904;2023-05-10T09:20:33;1.43;;;0.87;;
16254;SDS011;8235;52.198;9.904;2023-05-10T09:22:59;2.53;;;0.43;;
16254;SDS011;8235;52.198;9.904;2023-05-10T09:25:26;0.50;;;0.50;;
16254;SDS011;8235;52.198;9.904;2023-05-10T09:27:53;0.53;;;0.53;;
16254;SDS011;8235;52.198;9.904;2023-05-10T09:30:24;0.27;;;0.27;;
16254;SDS011;8235;52.198;9.904;2023-05-10T09:32:51;1.07;;;0.40;;
16254;SDS011;8235;52.198;9.904;2023-05-10T09:35:19;0.53;;;0.50;;
16254;SDS011;8235;52.198;9.904;2023-05-10T09:37:49;1.07;;;0.60;;
16254;SDS011;8235;52.198;9.904;2023-05-10T09:40:18;0.80;;;0.60;;
16254;SDS011;8235;52.198;9.904;2023-05-10T09:42:50;0.50;;;0.50;;
16254;SDS011;8235;52.198;9.904;2023-05-10T09:45:19;1.50;;;0.70;;
16254;SDS011;8235;52.198;9.904;2023-05-10T09:47:46;1.00;;;1.00;;
16254;SDS011;8235;52.198;9.904;2023-05-10T09:50:13;2.27;;;1.40;;
16254;SDS011;8235;52.198;9.904;2023-05-10T09:52:46;1.23;;;1.10;;
16254;SDS011;8235;52.198;9.904;2023-05-10T09:55:14;1.50;;;1.30;;
16254;SDS011;8235;52.198;9.904;2023-05-10T09:57:41;1.10;;;0.77;;
16254;SDS011;8235;52.198;9.904;2023-05-10T10:00:08;1.60;;;1.00;;
16254;SDS011;8235;52.198;9.904;2023-05-10T10:02:37;0.80;;;0.80;;
16254;SDS011;8235;52.198;9.904;2023-05-10T10:05:06;2.40;;;1.07;;
16254;SDS011;8235;52.198;9.904;2023-05-10T10:07:33;1.70;;;0.73;;
16254;SDS011;8235;52.198;9.904;2023-05-10T10:10:00;0.97;;;0.97;;
16254;SDS011;8235;52.198;9.904;2023-05-10T10:12:27;0.97;;;0.70;;
16254;SDS011;8235;52.198;9.904;2023-05-10T10:14:54;1.10;;;1.00;;
16254;SDS011;8235;52.198;9.904;2023-05-10T10:17:22;1.10;;;1.00;;
16254;SDS011;8235;52.198;9.904;2023-05-10T10:19:54;0.93;;;0.90;;
16254;SDS011;8235;52.198;9.904;2023-05-10T10:22:21;0.80;;;0.80;;
16254;SDS011;8235;52.198;9.904;2023-05-10T10:24:47;1.10;;;1.00;;
16254;SDS011;8235;52.198;9.904;2023-05-10T10:27:16;1.20;;;1.10;;
16254;SDS011;8235;52.198;9.904;2023-05-10T10:29:50;1.30;;;1.00;;
16254;SDS011;8235;52.198;9.904;2023-05-10T10:32:28;1.33;;;0.90;;
16254;SDS011;8235;52.198;9.904;2023-05-10T10:35:03;1.30;;;1.20;;
16254;SDS011;8235;52.198;9.904;2023-05-10T10:37:43;1.50;;;1.40;;
16254;SDS011;8235;52.198;9.904;2023-05-10T10:40:22;1.47;;;1.37;;
16254;SDS011;8235;52.198;9.904;2023-05-10T10:42:49;1.83;;;1.73;;
16254;SDS011;8235;52.198;9.904;2023-05-10T10:45:16;1.93;;;1.70;;
16254;SDS011;8235;52.198;9.904;2023-05-10T10:47:44;4.27;;;1.60;;
16254;SDS011;8235;52.198;9.904;2023-05-10T10:50:12;2.10;;;1.40;;
16254;SDS011;8235;52.198;9.904;2023-05-10T10:52:56;2.17;;;1.87;;
16254;SDS011;8235;52.198;9.904;2023-05-10T10:55:44;2.13;;;1.90;;
16254;SDS011;8235;52.198;9.904;2023-05-10T10:58:28;3.63;;;2.07;;
16254;SDS011;8235;52.198;9.904;2023-05-10T11:01:19;2.57;;;1.80;;
16254;SDS011;8235;52.198;9.904;2023-05-10T11:06:44;2.37;;;1.93;;
16254;SDS011;8235;52.198;9.904;2023-05-10T11:09:11;2.40;;;2.20;;
16254;SDS011;8235;52.198;9.904;2023-05-10T11:11:48;2.50;;;2.30;;
16254;SDS011;8235;52.198;9.904;2023-05-10T11:14:15;2.80;;;2.60;;
16254;SDS011;8235;52.198;9.904;2023-05-10T11:16:46;3.00;;;2.20;;
16254;SDS011;8235;52.198;9.904;2023-05-10T11:19:13;2.33;;;1.93;;
16254;SDS011;8235;52.198;9.904;2023-05-10T11:21:46;2.97;;;2.20;;
16254;SDS011;8235;52.198;9.904;2023-05-10T11:24:14;2.60;;;2.13;;
16254;SDS011;8235;52.198;9.904;2023-05-10T11:26:41;3.83;;;2.67;;
16254;SDS011;8235;52.198;9.904;2023-05-10T11:29:08;3.43;;;2.27;;
16254;SDS011;8235;52.198;9.904;2023-05-10T11:31:34;2.50;;;2.30;;
16254;SDS011;8235;52.198;9.904;2023-05-10T11:34:01;3.23;;;2.07;;
16254;SDS011;8235;52.198;9.904;2023-05-10T11:36:28;2.30;;;2.10;;
16254;SDS011;8235;52.198;9.904;2023-05-10T11:38:57;2.57;;;2.10;;
16254;SDS011;8235;52.198;9.904;2023-05-10T11:41:24;3.07;;;2.37;;
16254;SDS011;8235;52.198;9.904;2023-05-10T11:43:53;3.17;;;2.10;;
16254;SDS011;8235;52.198;9.904;2023-05-10T11:46:20;4.67;;;2.17;;
16254;SDS011;8235;52.198;9.904;2023-05-10T11:48:49;3.20;;;2.20;;
16254;SDS011;8235;52.198;9.904;2023-05-10T11:51:19;2.93;;;2.43;;
16254;SDS011;8235;52.198;9.904;2023-05-10T11:53:47;3.77;;;2.23;;
16254;SDS011;8235;52.198;9.904;2023-05-10T11:56:18;3.10;;;2.80;;
16254;SDS011;8235;52.198;9.904;2023-05-10T11:58:49;3.80;;;2.80;;
16254;SDS011;8235;52.198;9.904;2023-05-10T12:01:20;4.53;;;2.10;;
16254;SDS011;8235;52.198;9.904;2023-05-10T12:03:47;3.43;;;2.50;;
16254;SDS011;8235;52.198;9.904;2023-05-10T12:06:14;3.07;;;2.23;;
16254;SDS011;8235;52.198;9.904;2023-05-10T12:08:44;4.00;;;1.97;;
16254;SDS011;8235;52.198;9.904;2023-05-10T12:11:11;3.20;;;2.07;;
16254;SDS011;8235;52.198;9.904;2023-05-10T12:13:40;3.57;;;3.00;;
16254;SDS011;8235;52.198;9.904;2023-05-10T12:16:13;3.37;;;2.30;;
16254;SDS011;8235;52.198;9.904;2023-05-10T12:18:48;2.17;;;1.90;;
16254;SDS011;8235;52.198;9.904;2023-05-10T12:21:16;5.60;;;2.00;;
16254;SDS011;8235;52.198;9.904;2023-05-10T12:23:45;2.53;;;1.67;;
16254;SDS011;8235;52.198;9.904;2023-05-10T12:26:13;3.13;;;1.77;;
16254;SDS011;8235;52.198;9.904;2023-05-10T12:28:41;1.50;;;1.40;;
16254;SDS011;8235;52.198;9.904;2023-05-10T12:31:08;1.90;;;1.30;;
16254;SDS011;8235;52.198;9.904;2023-05-10T12:33:38;1.73;;;1.63;;
16254;SDS011;8235;52.198;9.904;2023-05-10T12:36:07;2.30;;;2.00;;
16254;SDS011;8235;52.198;9.904;2023-05-10T12:38:44;2.00;;;1.90;;
16254;SDS011;8235;52.198;9.904;2023-05-10T12:41:13;2.80;;;2.10;;
16254;SDS011;8235;52.198;9.904;2023-05-10T12:43:42;2.90;;;2.30;;
16254;SDS011;8235;52.198;9.904;2023-05-10T12:46:11;4.23;;;2.10;;
16254;SDS011;8235;52.198;9.904;2023-05-10T12:48:38;3.40;;;2.37;;
16254;SDS011;8235;52.198;9.904;2023-05-10T12:51:06;3.77;;;2.17;;
16254;SDS011;8235;52.198;9.904;2023-05-10T12:53:34;3.03;;;2.07;;
16254;SDS011;8235;52.198;9.904;2023-05-10T12:56:01;2.30;;;2.10;;
16254;SDS011;8235;52.198;9.904;2023-05-10T12:58:27;2.77;;;2.17;;
16254;SDS011;8235;52.198;9.904;2023-05-10T13:00:55;3.90;;;2.37;;
16254;SDS011;8235;52.198;9.904;2023-05-10T13:03:22;2.47;;;2.00;;
16254;SDS011;8235;52.198;9.904;2023-05-10T13:05:48;2.20;;;1.70;;
16254;SDS011;8235;52.198;9.904;2023-05-10T13:08:15;2.00;;;1.80;;
16254;SDS011;8235;52.198;9.904;2023-05-10T13:10:41;2.60;;;2.40;;
16254;SDS011;8235;52.198;9.904;2023-05-10T13:13:08;2.20;;;1.90;;
16254;SDS011;8235;52.198;9.904;2023-05-10T13:15:34;4.43;;;2.00;;
16254;SDS011;8235;52.198;9.904;2023-05-10T13:18:02;3.20;;;2.50;;
16254;SDS011;8235;52.198;9.904;2023-05-10T13:20:29;3.80;;;2.87;;
16254;SDS011;8235;52.198;9.904;2023-05-10T13:22:56;2.50;;;2.30;;
16254;SDS011;8235;52.198;9.904;2023-05-10T13:25:22;2.93;;;1.90;;
16254;SDS011;8235;52.198;9.904;2023-05-10T13:27:49;3.27;;;2.00;;
16254;SDS011;8235;52.198;9.904;2023-05-10T13:30:15;2.70;;;1.73;;
16254;SDS011;8235;52.198;9.904;2023-05-10T13:32:42;2.93;;;2.37;;
16254;SDS011;8235;52.198;9.904;2023-05-10T13:35:10;2.60;;;1.83;;
16254;SDS011;8235;52.198;9.904;2023-05-10T13:37:36;3.20;;;1.63;;
16254;SDS011;8235;52.198;9.904;2023-05-10T13:40:03;2.13;;;1.77;;
16254;SDS011;8235;52.198;9.904;2023-05-10T13:42:31;2.57;;;1.77;;
16254;SDS011;8235;52.198;9.904;2023-05-10T13:44:58;3.70;;;2.07;;
16254;SDS011;8235;52.198;9.904;2023-05-10T13:47:25;3.03;;;2.13;;
16254;SDS011;8235;52.198;9.904;2023-05-10T13:49:52;2.47;;;2.03;;
16254;SDS011;8235;52.198;9.904;2023-05-10T13:52:20;2.90;;;2.33;;
16254;SDS011;8235;52.198;9.904;2023-05-10T13:54:48;1.70;;;1.60;;
16254;SDS011;8235;52.198;9.904;2023-05-10T13:57:17;1.90;;;1.70;;
16254;SDS011;8235;52.198;9.904;2023-05-10T13:59:43;1.63;;;1.53;;
16254;SDS011;8235;52.198;9.904;2023-05-10T14:02:10;1.93;;;1.50;;
16254;SDS011;8235;52.198;9.904;2023-05-10T14:04:37;1.97;;;1.57;;
16254;SDS011;8235;52.198;9.904;2023-05-10T14:07:04;1.83;;;1.50;;
16254;SDS011;8235;52.198;9.904;2023-05-10T14:09:32;1.63;;;1.37;;
16254;SDS011;8235;52.198;9.904;2023-05-10T14:11:58;1.87;;;1.57;;
16254;SDS011;8235;52.198;9.904;2023-05-10T14:14:25;2.53;;;1.73;;
16254;SDS011;8235;52.198;9.904;2023-05-10T14:16:51;1.70;;;1.60;;
16254;SDS011;8235;52.198;9.904;2023-05-10T14:19:18;1.80;;;1.30;;
16254;SDS011;8235;52.198;9.904;2023-05-10T14:21:44;1.93;;;1.33;;
16254;SDS011;8235;52.198;9.904;2023-05-10T14:24:11;1.70;;;1.27;;
16254;SDS011;8235;52.198;9.904;2023-05-10T14:26:40;1.67;;;1.20;;
16254;SDS011;8235;52.198;9.904;2023-05-10T14:29:06;1.63;;;1.20;;
16254;SDS011;8235;52.198;9.904;2023-05-10T14:31:33;1.50;;;1.40;;
16254;SDS011;8235;52.198;9.904;2023-05-10T14:34:00;1.40;;;1.30;;
16254;SDS011;8235;52.198;9.904;2023-05-10T14:36:26;2.90;;;1.60;;
16254;SDS011;8235;52.198;9.904;2023-05-10T14:38:54;1.93;;;1.43;;
16254;SDS011;8235;52.198;9.904;2023-05-10T14:41:20;2.53;;;1.43;;
16254;SDS011;8235;52.198;9.904;2023-05-10T14:43:48;2.93;;;1.30;;
16254;SDS011;8235;52.198;9.904;2023-05-10T14:46:14;2.20;;;1.53;;
16254;SDS011;8235;52.198;9.904;2023-05-10T14:48:41;1.80;;;1.70;;
16254;SDS011;8235;52.198;9.904;2023-05-10T14:51:07;2.20;;;1.50;;
16254;SDS011;8235;52.198;9.904;2023-05-10T14:53:34;2.47;;;1.50;;
16254;SDS011;8235;52.198;9.904;2023-05-10T14:56:00;2.40;;;1.40;;
16254;SDS011;8235;52.198;9.904;2023-05-10T14:58:27;1.80;;;1.70;;
16254;SDS011;8235;52.198;9.904;2023-05-10T15:00:55;2.00;;;1.50;;
16254;SDS011;8235;52.198;9.904;2023-05-10T15:03:22;2.10;;;1.70;;
16254;SDS011;8235;52.198;9.904;2023-05-10T15:05:49;2.77;;;1.70;;
16254;SDS011;8235;52.198;9.904;2023-05-10T15:08:16;2.10;;;1.63;;
16254;SDS011;8235;52.198;9.904;2023-05-10T15:10:42;2.97;;;2.00;;